Time;durP1;ratioP1;P1;durP2;ratioP2;P2;SDS_P1;SDS_P2;PMS_P1;PMS_P2;Temp;Humidity;BMP_temperature;BMP_pressure;BME280_temperature;BME280_humidity;BME280_pressure;Samples;Min_cycle;Max_cycle;Signal;HPM_P1;HPM_P2
2022/10/25 00:00:13;;;;;;;25.92;3.70;;;;;;;;;;5081252;28;20043;-77
2022/10/25 00:02:39;;;;;;;25.63;3.58;;;;;;;;;;5084315;28;20029;-76
2022/10/25 00:05:05;;;;;;;19.98;3.30;;;;;;;;;;5082147;28;20393;-76
2022/10/25 00:07:31;;;;;;;21.83;3.45;;;;;;;;;;5083537;28;20035;-76
2022/10/25 00:09:57;;;;;;;27.98;3.35;;;;;;;;;;5086891;28;20024;-77
2022/10/25 00:12:23;;;;;;;24.70;4.20;;;;;;;;;;5089150;28;20067;-77
2022/10/25 00:14:49;;;;;;;21.40;3.47;;;;;;;;;;5089557;28;20032;-76
2022/10/25 00:17:15;;;;;;;28.25;3.85;;;;;;;;;;5084217;28;20035;-76
2022/10/25 00:19:41;;;;;;;19.77;4.03;;;;;;;;;;5083577;28;20295;-76
2022/10/25 00:22:07;;;;;;;22.48;4.45;;;;;;;;;;5083577;28;20130;-77
2022/10/25 00:24:33;;;;;;;21.70;3.20;;;;;;;;;;5082686;28;20082;-76
2022/10/25 00:26:59;;;;;;;28.17;4.25;;;;;;;;;;5077001;28;20036;-77
2022/10/25 00:29:25;;;;;;;25.42;4.07;;;;;;;;;;5074377;28;20060;-76
2022/10/25 00:31:51;;;;;;;18.15;4.22;;;;;;;;;;5074528;28;20029;-77
2022/10/25 00:34:17;;;;;;;23.48;4.68;;;;;;;;;;5077328;28;20031;-76
2022/10/25 00:36:42;;;;;;;24.23;4.50;;;;;;;;;;5080930;28;20379;-77
2022/10/25 00:39:09;;;;;;;21.45;4.45;;;;;;;;;;5079431;28;20482;-76
2022/10/25 00:41:35;;;;;;;18.42;4.20;;;;;;;;;;5077930;28;20020;-77
2022/10/25 00:44:19;;;;;;;28.15;5.05;;;;;;;;;;5075931;28;20025;-76
2022/10/25 00:46:45;;;;;;;28.23;5.35;;;;;;;;;;5075327;28;20032;-77
2022/10/25 00:49:15;;;;;;;29.65;5.43;;;;;;;;;;5074511;28;20036;-77
2022/10/25 00:51:45;;;;;;;19.67;4.72;;;;;;;;;;5080211;28;20218;-77
2022/10/25 00:54:14;;;;;;;36.42;6.35;;;;;;;;;;5082894;28;20033;-76
2022/10/25 00:56:42;;;;;;;21.48;4.80;;;;;;;;;;5083447;28;20032;-77
2022/10/25 00:59:10;;;;;;;31.58;5.93;;;;;;;;;;5076596;28;20028;-77
2022/10/25 01:01:36;;;;;;;27.65;5.38;;;;;;;;;;5073667;28;20389;-77
2022/10/25 01:04:05;;;;;;;18.58;5.18;;;;;;;;;;5074571;28;20473;-78
2022/10/25 01:06:34;;;;;;;23.33;5.55;;;;;;;;;;5077507;28;20032;-77
2022/10/25 01:09:00;;;;;;;20.02;5.38;;;;;;;;;;5078053;28;20090;-77
2022/10/25 01:11:26;;;;;;;19.95;5.40;;;;;;;;;;5093628;22;20045;-74
2022/10/25 01:13:52;;;;;;;23.83;5.70;;;;;;;;;;5052230;28;20087;-74
2022/10/25 01:16:22;;;;;;;28.33;4.88;;;;;;;;;;5052022;28;20031;-74
2022/10/25 01:18:57;;;;;;;23.15;5.25;;;;;;;;;;5052513;28;20470;-74
2022/10/25 01:21:29;;;;;;;36.80;6.68;;;;;;;;;;5053383;28;20093;-73
2022/10/25 01:24:03;;;;;;;27.15;5.93;;;;;;;;;;5054443;28;20362;-75
2022/10/25 01:26:35;;;;;;;23.58;5.15;;;;;;;;;;5053749;28;20029;-74
2022/10/25 01:29:16;;;;;;;29.42;5.35;;;;;;;;;;5054366;28;20082;-74
2022/10/25 01:31:45;;;;;;;26.15;5.60;;;;;;;;;;5055513;28;20033;-74
2022/10/25 01:34:15;;;;;;;31.20;5.35;;;;;;;;;;5057231;28;20043;-73
2022/10/25 01:36:41;;;;;;;24.60;5.40;;;;;;;;;;5039703;28;20393;-75
2022/10/25 01:39:18;;;;;;;17.40;4.93;;;;;;;;;;5055450;28;20032;-75
2022/10/25 01:42:00;;;;;;;23.98;5.38;;;;;;;;;;5056996;28;20056;-73
2022/10/25 01:44:43;;;;;;;26.10;5.30;;;;;;;;;;5052192;28;20048;-74
2022/10/25 01:47:28;;;;;;;26.95;5.25;;;;;;;;;;5051710;28;20022;-74
2022/10/25 01:49:59;;;;;;;19.48;4.85;;;;;;;;;;5052078;28;20029;-74
2022/10/25 01:52:25;;;;;;;19.27;5.20;;;;;;;;;;5033833;28;20037;-73
2022/10/25 01:54:51;;;;;;;18.55;5.05;;;;;;;;;;5051936;28;20096;-74
2022/10/25 01:57:38;;;;;;;21.38;5.72;;;;;;;;;;5051658;28;20470;-73
2022/10/25 02:00:10;;;;;;;28.67;5.43;;;;;;;;;;5054214;28;20025;-74
2022/10/25 02:02:42;;;;;;;28.63;6.00;;;;;;;;;;5052574;28;20087;-74
2022/10/25 02:05:17;;;;;;;24.60;5.25;;;;;;;;;;5051797;28;20029;-73
2022/10/25 02:07:50;;;;;;;23.90;5.72;;;;;;;;;;5051815;28;20044;-74
2022/10/25 02:10:24;;;;;;;24.50;5.80;;;;;;;;;;5045588;28;20052;-74
2022/10/25 02:13:09;;;;;;;22.67;5.55;;;;;;;;;;5054239;28;20036;-74
2022/10/25 02:15:45;;;;;;;38.42;6.85;;;;;;;;;;5052224;28;20032;-74
2022/10/25 02:18:13;;;;;;;25.33;5.85;;;;;;;;;;5051411;28;20112;-75
2022/10/25 02:20:40;;;;;;;30.48;6.10;;;;;;;;;;5051546;28;20031;-75
2022/10/25 02:23:06;;;;;;;23.15;6.10;;;;;;;;;;5051294;28;20027;-73
2022/10/25 02:25:33;;;;;;;27.70;7.10;;;;;;;;;;5051258;28;20024;-74
2022/10/25 02:28:00;;;;;;;18.65;5.65;;;;;;;;;;5051263;28;20025;-75
2022/10/25 02:30:26;;;;;;;23.08;6.53;;;;;;;;;;5051432;28;20435;-74
2022/10/25 02:32:52;;;;;;;27.35;6.65;;;;;;;;;;5051175;28;20429;-75
2022/10/25 02:35:18;;;;;;;30.33;8.13;;;;;;;;;;5051227;28;20075;-74
2022/10/25 02:37:45;;;;;;;19.75;6.72;;;;;;;;;;5051215;28;20032;-74
2022/10/25 02:40:11;;;;;;;27.23;7.55;;;;;;;;;;5051492;28;20033;-74
2022/10/25 02:42:37;;;;;;;36.50;7.00;;;;;;;;;;5055048;28;20433;-74
2022/10/25 02:45:03;;;;;;;28.38;7.25;;;;;;;;;;5055457;28;20024;-74
2022/10/25 02:47:29;;;;;;;32.28;7.78;;;;;;;;;;5055718;28;20029;-74
2022/10/25 02:49:55;;;;;;;30.38;7.85;;;;;;;;;;5060881;28;20108;-74
2022/10/25 02:52:21;;;;;;;35.65;8.00;;;;;;;;;;5061888;28;20029;-76
2022/10/25 02:54:47;;;;;;;32.00;7.88;;;;;;;;;;5059802;28;20028;-74
2022/10/25 02:57:13;;;;;;;29.08;10.05;;;;;;;;;;5060287;28;20090;-75
2022/10/25 02:59:38;;;;;;;28.55;9.23;;;;;;;;;;5042699;28;20096;-75
2022/10/25 03:02:04;;;;;;;32.58;9.32;;;;;;;;;;5061181;28;20489;-75
2022/10/25 03:04:30;;;;;;;34.67;10.30;;;;;;;;;;5059139;28;20028;-73
2022/10/25 03:06:56;;;;;;;24.00;9.10;;;;;;;;;;5054425;28;20014;-74
2022/10/25 03:09:22;;;;;;;33.00;10.52;;;;;;;;;;5054863;28;20493;-73
2022/10/25 03:11:48;;;;;;;34.55;10.45;;;;;;;;;;5054447;28;20047;-73
2022/10/25 03:14:14;;;;;;;22.35;9.48;;;;;;;;;;5054464;28;20029;-74
2022/10/25 03:16:40;;;;;;;29.38;9.68;;;;;;;;;;5054228;28;20035;-74
2022/10/25 03:19:06;;;;;;;30.67;10.52;;;;;;;;;;5054381;28;20017;-74
2022/10/25 03:21:32;;;;;;;32.40;10.75;;;;;;;;;;5054227;28;20397;-74
2022/10/25 03:23:58;;;;;;;26.00;10.43;;;;;;;;;;5055182;28;20021;-73
2022/10/25 03:26:24;;;;;;;28.90;9.88;;;;;;;;;;5057575;28;20028;-73
2022/10/25 03:28:50;;;;;;;30.27;10.60;;;;;;;;;;5062923;28;20033;-74
2022/10/25 03:31:18;;;;;;;31.77;9.95;;;;;;;;;;5064175;28;20064;-74
2022/10/25 03:33:44;;;;;;;34.42;10.82;;;;;;;;;;5057162;28;20047;-74
2022/10/25 03:36:10;;;;;;;32.88;11.07;;;;;;;;;;5053858;28;20025;-74
2022/10/25 03:38:36;;;;;;;41.20;12.75;;;;;;;;;;5053995;28;20021;-74
2022/10/25 03:41:02;;;;;;;31.85;10.48;;;;;;;;;;5035877;28;20020;-74
2022/10/25 03:43:28;;;;;;;37.08;11.07;;;;;;;;;;5053764;28;20100;-75
2022/10/25 03:45:54;;;;;;;32.28;11.23;;;;;;;;;;5056576;28;20028;-74
2022/10/25 03:48:20;;;;;;;32.47;10.90;;;;;;;;;;5054499;28;20216;-74
2022/10/25 03:50:46;;;;;;;35.58;11.60;;;;;;;;;;5055550;28;20052;-74
2022/10/25 03:53:12;;;;;;;31.83;10.82;;;;;;;;;;5054278;28;20029;-74
2022/10/25 03:55:37;;;;;;;33.75;12.23;;;;;;;;;;5054661;28;20013;-74
2022/10/25 03:58:03;;;;;;;35.55;12.43;;;;;;;;;;5056861;28;20540;-74
2022/10/25 04:00:29;;;;;;;39.08;11.88;;;;;;;;;;5053740;28;20532;-74
2022/10/25 04:02:57;;;;;;;37.65;11.90;;;;;;;;;;5053596;28;20100;-74
2022/10/25 04:05:22;;;;;;;29.60;11.60;;;;;;;;;;5053914;28;20017;-74
2022/10/25 04:07:49;;;;;;;33.40;11.30;;;;;;;;;;5053493;28;20028;-73
2022/10/25 04:10:15;;;;;;;31.08;11.48;;;;;;;;;;5053490;28;20057;-75
2022/10/25 04:12:41;;;;;;;34.42;11.98;;;;;;;;;;5053122;28;20036;-73
2022/10/25 04:15:07;;;;;;;33.45;10.98;;;;;;;;;;5053652;28;20025;-74
2022/10/25 04:17:33;;;;;;;36.05;11.27;;;;;;;;;;5053125;28;20021;-75
2022/10/25 04:19:59;;;;;;;32.58;10.45;;;;;;;;;;5053148;28;20021;-75
2022/10/25 04:22:25;;;;;;;35.25;10.35;;;;;;;;;;5053793;28;20032;-75
2022/10/25 04:24:51;;;;;;;31.88;11.38;;;;;;;;;;5056443;28;20025;-77
2022/10/25 04:27:17;;;;;;;33.65;11.20;;;;;;;;;;5053296;28;20049;-73
2022/10/25 04:29:43;;;;;;;32.15;10.10;;;;;;;;;;5053977;28;20033;-74
2022/10/25 04:32:09;;;;;;;32.88;11.23;;;;;;;;;;5054550;28;20029;-74
2022/10/25 04:34:35;;;;;;;33.08;10.60;;;;;;;;;;5053356;28;20040;-74
2022/10/25 04:37:01;;;;;;;34.63;11.30;;;;;;;;;;5052632;28;20220;-75
2022/10/25 04:39:27;;;;;;;32.72;10.70;;;;;;;;;;5052676;28;20536;-74
2022/10/25 04:41:53;;;;;;;35.38;11.98;;;;;;;;;;5034843;28;20051;-74
2022/10/25 04:44:19;;;;;;;31.98;10.57;;;;;;;;;;5052874;28;20386;-75
2022/10/25 04:46:45;;;;;;;35.50;11.00;;;;;;;;;;5052846;28;20025;-74
2022/10/25 04:49:11;;;;;;;40.83;12.15;;;;;;;;;;5052575;28;20045;-74
2022/10/25 04:51:37;;;;;;;36.97;12.77;;;;;;;;;;5052786;28;20120;-74
2022/10/25 04:54:03;;;;;;;37.17;12.18;;;;;;;;;;5052763;28;20039;-74
2022/10/25 04:56:29;;;;;;;36.72;13.90;;;;;;;;;;5052493;28;20021;-74
2022/10/25 04:58:55;;;;;;;35.42;12.10;;;;;;;;;;5035870;28;20035;-76
2022/10/25 05:01:21;;;;;;;37.70;12.57;;;;;;;;;;5053272;28;20038;-73
2022/10/25 05:03:48;;;;;;;35.28;12.43;;;;;;;;;;5053809;28;20130;-73
2022/10/25 05:06:16;;;;;;;31.63;11.77;;;;;;;;;;5055140;28;20021;-75
2022/10/25 05:08:43;;;;;;;34.00;12.50;;;;;;;;;;5054482;28;20457;-74
2022/10/25 05:11:10;;;;;;;33.83;12.32;;;;;;;;;;5057469;28;20113;-75
2022/10/25 05:13:36;;;;;;;29.75;11.48;;;;;;;;;;5056745;28;20051;-74
2022/10/25 05:16:02;;;;;;;33.65;11.90;;;;;;;;;;5052694;28;20033;-73
2022/10/25 05:18:29;;;;;;;39.05;12.35;;;;;;;;;;5052329;28;20036;-75
2022/10/25 05:20:57;;;;;;;35.35;12.23;;;;;;;;;;5034371;28;20054;-76
2022/10/25 05:23:23;;;;;;;28.02;11.50;;;;;;;;;;5056144;28;20017;-74
2022/10/25 05:25:59;;;;;;;36.53;12.43;;;;;;;;;;5053634;28;20379;-75
2022/10/25 05:28:25;;;;;;;31.52;12.32;;;;;;;;;;5054030;28;20488;-76
2022/10/25 05:30:51;;;;;;;34.58;12.70;;;;;;;;;;5054844;28;20032;-75
2022/10/25 05:33:17;;;;;;;34.63;12.93;;;;;;;;;;5053383;28;20389;-73
2022/10/25 05:35:43;;;;;;;32.00;12.93;;;;;;;;;;5052731;28;20083;-75
2022/10/25 05:38:09;;;;;;;36.03;12.35;;;;;;;;;;5052519;28;20025;-74
2022/10/25 05:40:35;;;;;;;34.72;12.98;;;;;;;;;;5053316;28;20084;-73
2022/10/25 05:43:00;;;;;;;33.05;12.88;;;;;;;;;;5053603;28;20025;-75
2022/10/25 05:45:26;;;;;;;33.05;12.35;;;;;;;;;;5055326;28;20063;-74
2022/10/25 05:47:52;;;;;;;32.92;12.95;;;;;;;;;;5056776;28;20051;-74
2022/10/25 05:50:18;;;;;;;36.35;12.98;;;;;;;;;;5055309;28;20033;-75
2022/10/25 05:52:44;;;;;;;35.40;13.35;;;;;;;;;;5055202;28;20409;-74
2022/10/25 05:55:10;;;;;;;33.20;12.98;;;;;;;;;;5055708;28;20424;-73
2022/10/25 05:57:36;;;;;;;33.55;13.65;;;;;;;;;;5055508;28;20488;-73
2022/10/25 06:00:03;;;;;;;33.25;12.95;;;;;;;;;;5055207;28;20102;-75
2022/10/25 06:02:28;;;;;;;41.60;14.52;;;;;;;;;;5054885;28;20454;-73
2022/10/25 06:04:54;;;;;;;35.55;15.13;;;;;;;;;;5057632;28;20048;-75
2022/10/25 06:07:20;;;;;;;35.88;13.93;;;;;;;;;;5054186;28;20374;-75
2022/10/25 06:09:46;;;;;;;36.67;13.80;;;;;;;;;;5054949;28;20498;-74
2022/10/25 06:12:12;;;;;;;30.10;13.60;;;;;;;;;;5051495;28;20120;-74
2022/10/25 06:14:38;;;;;;;36.95;13.60;;;;;;;;;;5034061;28;20017;-75
2022/10/25 06:17:04;;;;;;;29.73;14.05;;;;;;;;;;5055040;28;20047;-74
2022/10/25 06:19:30;;;;;;;38.10;14.43;;;;;;;;;;5056426;28;20108;-74
2022/10/25 06:21:56;;;;;;;37.78;15.45;;;;;;;;;;5058128;28;20056;-75
2022/10/25 06:24:22;;;;;;;33.92;14.60;;;;;;;;;;5056884;28;20029;-74
2022/10/25 06:26:48;;;;;;;42.75;15.52;;;;;;;;;;5061494;28;20025;-74
2022/10/25 06:29:14;;;;;;;36.25;14.88;;;;;;;;;;5053114;28;20042;-74
2022/10/25 06:31:41;;;;;;;33.58;16.27;;;;;;;;;;5046254;28;20470;-76
2022/10/25 06:34:07;;;;;;;34.38;15.57;;;;;;;;;;5061739;28;20501;-75
2022/10/25 06:36:33;;;;;;;38.97;16.25;;;;;;;;;;5060283;28;20083;-75
2022/10/25 06:38:59;;;;;;;37.55;15.65;;;;;;;;;;5070755;28;20116;-73
2022/10/25 06:41:30;;;;;;;33.70;15.23;;;;;;;;;;5073868;28;20021;-75
2022/10/25 06:43:57;;;;;;;34.25;15.50;;;;;;;;;;5052133;28;20114;-74
2022/10/25 06:46:25;;;;;;;42.35;16.70;;;;;;;;;;5077267;28;20077;-75
2022/10/25 06:48:51;;;;;;;32.70;16.00;;;;;;;;;;5068977;28;20081;-75
2022/10/25 06:51:17;;;;;;;41.42;15.88;;;;;;;;;;5056121;28;20043;-75
2022/10/25 06:53:43;;;;;;;31.05;16.23;;;;;;;;;;5055969;28;20509;-73
2022/10/25 06:56:11;;;;;;;35.00;16.75;;;;;;;;;;5057021;28;20021;-75
2022/10/25 06:58:37;;;;;;;34.38;17.13;;;;;;;;;;5059910;28;20110;-74
2022/10/25 07:01:04;;;;;;;40.40;17.55;;;;;;;;;;5063085;28;20028;-73
2022/10/25 07:03:33;;;;;;;39.15;18.55;;;;;;;;;;5061657;28;20080;-73
2022/10/25 07:06:01;;;;;;;32.72;16.48;;;;;;;;;;5061666;28;20041;-73
2022/10/25 07:08:27;;;;;;;32.13;16.55;;;;;;;;;;5061351;28;20085;-74
2022/10/25 07:10:53;;;;;;;39.97;18.75;;;;;;;;;;5062707;28;20036;-75
2022/10/25 07:13:19;;;;;;;38.05;17.13;;;;;;;;;;5097860;22;20040;-76
2022/10/25 07:15:45;;;;;;;41.50;18.45;;;;;;;;;;5076616;28;20374;-77
2022/10/25 07:18:11;;;;;;;37.90;17.67;;;;;;;;;;5078461;28;20087;-77
2022/10/25 07:20:37;;;;;;;34.40;17.55;;;;;;;;;;5077084;28;20043;-77
2022/10/25 07:23:03;;;;;;;40.13;18.80;;;;;;;;;;5077709;28;20028;-77
2022/10/25 07:25:30;;;;;;;35.47;17.83;;;;;;;;;;5081050;28;20025;-77
2022/10/25 07:27:56;;;;;;;44.38;18.63;;;;;;;;;;5085037;28;20021;-77
2022/10/25 07:30:22;;;;;;;43.15;19.65;;;;;;;;;;5078888;28;20025;-77
2022/10/25 07:32:48;;;;;;;39.30;19.15;;;;;;;;;;5076005;28;20084;-76
2022/10/25 07:35:14;;;;;;;37.88;18.70;;;;;;;;;;5082370;28;20401;-76
2022/10/25 07:37:40;;;;;;;34.15;18.80;;;;;;;;;;5076611;28;20028;-76
2022/10/25 07:40:06;;;;;;;30.27;18.08;;;;;;;;;;5076604;28;20048;-77
2022/10/25 07:42:32;;;;;;;42.47;18.63;;;;;;;;;;5075792;28;20473;-77
2022/10/25 07:44:58;;;;;;;35.08;19.17;;;;;;;;;;5079729;28;20051;-76
2022/10/25 07:47:24;;;;;;;37.33;18.95;;;;;;;;;;5078846;28;20113;-77
2022/10/25 07:49:49;;;;;;;42.45;20.38;;;;;;;;;;5080459;28;20032;-77
2022/10/25 07:52:15;;;;;;;35.38;19.35;;;;;;;;;;5087213;28;20072;-76
2022/10/25 07:54:41;;;;;;;39.65;19.10;;;;;;;;;;5099002;28;20016;-75
2022/10/25 07:57:09;;;;;;;43.30;19.85;;;;;;;;;;5098001;28;20032;-76
2022/10/25 07:59:35;;;;;;;41.55;19.77;;;;;;;;;;5096208;28;20122;-75
2022/10/25 08:02:01;;;;;;;37.85;19.50;;;;;;;;;;5083484;28;20044;-76
2022/10/25 08:04:30;;;;;;;30.45;18.10;;;;;;;;;;5081963;28;20137;-76
2022/10/25 08:06:59;;;;;;;34.20;18.27;;;;;;;;;;5082698;28;20306;-77
2022/10/25 08:09:25;;;;;;;41.13;19.63;;;;;;;;;;5083044;28;20028;-75
2022/10/25 08:11:51;;;;;;;30.05;17.60;;;;;;;;;;5094461;28;20041;-76
2022/10/25 08:14:17;;;;;;;43.42;19.95;;;;;;;;;;5096913;28;20032;-74
2022/10/25 08:16:43;;;;;;;39.17;18.10;;;;;;;;;;5093768;28;20097;-76
2022/10/25 08:19:09;;;;;;;36.10;17.73;;;;;;;;;;5091223;28;20020;-76
2022/10/25 08:21:35;;;;;;;39.72;18.60;;;;;;;;;;5083806;28;20070;-76
2022/10/25 08:24:01;;;;;;;41.05;18.33;;;;;;;;;;5079264;28;20070;-77
2022/10/25 08:26:28;;;;;;;36.78;17.92;;;;;;;;;;5082372;28;20035;-76
2022/10/25 08:28:54;;;;;;;37.97;18.23;;;;;;;;;;5083745;28;20040;-77
2022/10/25 08:31:20;;;;;;;37.08;17.05;;;;;;;;;;5084967;28;20342;-76
2022/10/25 08:33:46;;;;;;;34.70;16.58;;;;;;;;;;5085377;28;20040;-75
2022/10/25 08:36:12;;;;;;;34.65;16.90;;;;;;;;;;5085184;28;20020;-77
2022/10/25 08:38:38;;;;;;;39.22;17.50;;;;;;;;;;5082531;28;20071;-76
2022/10/25 08:41:10;;;;;;;37.55;15.82;;;;;;;;;;5085499;28;20021;-77
2022/10/25 08:43:55;;;;;;;39.10;16.27;;;;;;;;;;5084776;28;20514;-78
2022/10/25 08:46:23;;;;;;;41.00;15.85;;;;;;;;;;5077239;28;20024;-76
2022/10/25 08:48:52;;;;;;;37.38;15.70;;;;;;;;;;5076121;28;20107;-76
2022/10/25 08:51:26;;;;;;;34.90;14.85;;;;;;;;;;5076579;28;20126;-77
2022/10/25 08:53:54;;;;;;;32.42;14.70;;;;;;;;;;5078107;28;20026;-76
2022/10/25 08:56:20;;;;;;;29.27;13.88;;;;;;;;;;5079658;28;20124;-77
2022/10/25 08:58:52;;;;;;;33.92;14.05;;;;;;;;;;5075533;28;20031;-76
2022/10/25 09:01:22;;;;;;;38.58;14.50;;;;;;;;;;5075469;28;20025;-77
2022/10/25 09:03:48;;;;;;;32.97;13.55;;;;;;;;;;5075454;28;20392;-77
2022/10/25 09:06:23;;;;;;;34.67;12.70;;;;;;;;;;5075664;28;20082;-77
2022/10/25 09:08:49;;;;;;;32.50;11.88;;;;;;;;;;5078304;28;20025;-77
2022/10/25 09:11:27;;;;;;;31.17;13.07;;;;;;;;;;5080783;28;20059;-76
2022/10/25 09:14:07;;;;;;;31.52;11.32;;;;;;;;;;5074710;28;20037;-76
2022/10/25 09:16:53;;;;;;;33.03;10.90;;;;;;;;;;5074461;28;20024;-77
2022/10/25 09:19:31;;;;;;;34.22;9.93;;;;;;;;;;5075545;28;20020;-75
2022/10/25 09:22:02;;;;;;;31.25;9.85;;;;;;;;;;5074721;28;20025;-77
2022/10/25 09:24:34;;;;;;;26.00;9.65;;;;;;;;;;5074584;28;20016;-77
2022/10/25 09:27:05;;;;;;;28.42;9.10;;;;;;;;;;5073233;28;20016;-77
2022/10/25 09:29:39;;;;;;;41.58;9.90;;;;;;;;;;5077239;28;20032;-76
2022/10/25 09:32:11;;;;;;;27.23;8.45;;;;;;;;;;5074953;28;20032;-77
2022/10/25 09:34:38;;;;;;;24.77;8.40;;;;;;;;;;5078690;28;20112;-77
2022/10/25 09:37:10;;;;;;;26.98;7.78;;;;;;;;;;5093540;28;20031;-76
2022/10/25 09:39:48;;;;;;;24.13;6.45;;;;;;;;;;5088077;28;20096;-75
2022/10/25 09:42:24;;;;;;;35.88;7.75;;;;;;;;;;5074960;28;20050;-75
2022/10/25 09:44:52;;;;;;;27.33;6.97;;;;;;;;;;5077201;28;20021;-76
2022/10/25 09:47:38;;;;;;;24.42;6.47;;;;;;;;;;5078651;28;20024;-76
2022/10/25 09:50:15;;;;;;;25.38;5.63;;;;;;;;;;5078421;28;20044;-75
2022/10/25 09:53:00;;;;;;;22.58;5.25;;;;;;;;;;5081067;28;20039;-76
2022/10/25 09:55:25;;;;;;;23.77;5.85;;;;;;;;;;5077945;28;20629;-75
2022/10/25 09:57:51;;;;;;;27.75;5.97;;;;;;;;;;5078312;28;20071;-78
2022/10/25 10:00:17;;;;;;;22.45;5.40;;;;;;;;;;5078765;28;20071;-76
2022/10/25 10:02:43;;;;;;;25.85;5.95;;;;;;;;;;5076993;28;20050;-77
2022/10/25 10:05:17;;;;;;;22.15;6.38;;;;;;;;;;5081986;28;20032;-77
2022/10/25 10:07:44;;;;;;;33.25;9.32;;;;;;;;;;5086325;28;20025;-77
2022/10/25 10:10:16;;;;;;;27.60;8.27;;;;;;;;;;5084215;28;20024;-77
2022/10/25 10:12:49;;;;;;;28.95;7.72;;;;;;;;;;5077307;28;20043;-76
2022/10/25 10:15:19;;;;;;;24.23;5.00;;;;;;;;;;5078175;28;20338;-77
2022/10/25 10:17:45;;;;;;;21.92;6.45;;;;;;;;;;5081993;28;20033;-77
2022/10/25 10:20:16;;;;;;;20.73;4.80;;;;;;;;;;5082460;28;20021;-76
2022/10/25 10:22:47;;;;;;;27.20;6.47;;;;;;;;;;5084987;28;20025;-77
2022/10/25 10:25:15;;;;;;;20.33;5.68;;;;;;;;;;5082853;28;20024;-77
2022/10/25 10:27:41;;;;;;;22.65;5.10;;;;;;;;;;5081666;28;20052;-77
2022/10/25 10:30:08;;;;;;;22.83;5.13;;;;;;;;;;5081178;28;20035;-75
2022/10/25 10:32:36;;;;;;;26.05;5.13;;;;;;;;;;5085308;28;20032;-74
2022/10/25 10:35:04;;;;;;;23.63;5.20;;;;;;;;;;5086825;28;20040;-75
2022/10/25 10:37:31;;;;;;;32.15;5.53;;;;;;;;;;5085856;28;20033;-77
2022/10/25 10:39:58;;;;;;;23.20;4.80;;;;;;;;;;5082158;28;20177;-79
2022/10/25 10:42:36;;;;;;;22.45;5.10;;;;;;;;;;5085565;28;20025;-78
2022/10/25 10:45:07;;;;;;;24.13;4.97;;;;;;;;;;5081479;28;20021;-77
2022/10/25 10:47:36;;;;;;;19.08;4.50;;;;;;;;;;5078902;28;20016;-77
2022/10/25 10:50:23;;;;;;;21.95;4.65;;;;;;;;;;5085837;28;20028;-76
2022/10/25 10:53:06;;;;;;;22.30;5.88;;;;;;;;;;5085672;28;20031;-78
2022/10/25 10:55:45;;;;;;;27.35;4.93;;;;;;;;;;5082479;28;20027;-77
2022/10/25 10:58:14;;;;;;;24.77;4.68;;;;;;;;;;5082981;28;20028;-76
2022/10/25 11:00:47;;;;;;;25.35;4.95;;;;;;;;;;5083444;28;20496;-77
2022/10/25 11:03:32;;;;;;;20.02;4.43;;;;;;;;;;5086999;28;20025;-77
2022/10/25 11:05:59;;;;;;;20.00;4.32;;;;;;;;;;5087090;28;20051;-75
2022/10/25 11:08:25;;;;;;;21.33;4.63;;;;;;;;;;5088624;28;20024;-77
2022/10/25 11:10:51;;;;;;;17.55;3.75;;;;;;;;;;5090645;28;20033;-75
2022/10/25 11:13:19;;;;;;;20.17;4.22;;;;;;;;;;5089828;28;20056;-76
2022/10/25 11:15:44;;;;;;;19.50;3.67;;;;;;;;;;5093968;28;20085;-75
2022/10/25 11:18:11;;;;;;;18.95;3.70;;;;;;;;;;5088521;28;20451;-77
2022/10/25 11:20:48;;;;;;;18.75;3.30;;;;;;;;;;5085859;28;20416;-76
2022/10/25 11:23:27;;;;;;;13.27;3.47;;;;;;;;;;5085313;28;20080;-77
2022/10/25 11:26:09;;;;;;;16.95;3.25;;;;;;;;;;5082164;28;20081;-76
2022/10/25 11:28:45;;;;;;;14.63;3.28;;;;;;;;;;5079044;28;20025;-76
2022/10/25 11:31:24;;;;;;;23.50;3.80;;;;;;;;;;5080306;28;20124;-76
2022/10/25 11:34:02;;;;;;;17.67;3.78;;;;;;;;;;5080434;28;20025;-76
2022/10/25 11:36:34;;;;;;;27.10;4.63;;;;;;;;;;5077652;28;20520;-75
2022/10/25 11:39:12;;;;;;;12.65;3.55;;;;;;;;;;5079941;28;20020;-75
2022/10/25 11:41:38;;;;;;;15.07;2.78;;;;;;;;;;5077875;28;20038;-75
2022/10/25 11:44:16;;;;;;;14.35;2.97;;;;;;;;;;5079523;28;20048;-77
2022/10/25 11:46:46;;;;;;;12.90;3.08;;;;;;;;;;5078667;28;20111;-77
2022/10/25 11:49:12;;;;;;;19.63;3.38;;;;;;;;;;5078209;28;20020;-77
2022/10/25 11:51:49;;;;;;;14.43;3.50;;;;;;;;;;5078724;28;20082;-76
2022/10/25 11:54:25;;;;;;;17.52;4.05;;;;;;;;;;5078148;28;20019;-78
2022/10/25 11:57:14;;;;;;;14.48;3.30;;;;;;;;;;5077251;28;20082;-75
2022/10/25 11:59:50;;;;;;;19.05;4.60;;;;;;;;;;5075085;28;20066;-76
2022/10/25 12:02:31;;;;;;;19.42;3.83;;;;;;;;;;5081927;28;20029;-75
2022/10/25 12:05:00;;;;;;;16.42;2.95;;;;;;;;;;5085818;28;20035;-75
2022/10/25 12:07:37;;;;;;;17.23;2.95;;;;;;;;;;5077970;28;20516;-76
2022/10/25 12:10:14;;;;;;;18.60;4.10;;;;;;;;;;5079396;28;20056;-77
2022/10/25 12:12:53;;;;;;;14.63;3.47;;;;;;;;;;5079888;28;20093;-77
2022/10/25 12:15:21;;;;;;;18.20;3.30;;;;;;;;;;5089711;28;20024;-75
2022/10/25 12:17:48;;;;;;;16.33;4.28;;;;;;;;;;5088696;28;20028;-75
2022/10/25 12:20:19;;;;;;;14.32;2.90;;;;;;;;;;5089057;28;20104;-76
2022/10/25 12:22:48;;;;;;;16.30;3.15;;;;;;;;;;5089205;28;20035;-77
2022/10/25 12:25:38;;;;;;;14.13;3.20;;;;;;;;;;5086544;28;20031;-77
2022/10/25 12:28:25;;;;;;;16.63;2.92;;;;;;;;;;5078898;28;20129;-77
2022/10/25 12:30:53;;;;;;;18.40;3.08;;;;;;;;;;5074977;28;20082;-78
2022/10/25 12:33:27;;;;;;;13.18;3.20;;;;;;;;;;5081999;28;20025;-78
2022/10/25 12:35:58;;;;;;;14.93;3.13;;;;;;;;;;5079223;28;20020;-77
2022/10/25 12:38:27;;;;;;;15.32;2.95;;;;;;;;;;5077604;28;20107;-78
2022/10/25 12:40:56;;;;;;;14.20;2.90;;;;;;;;;;5082224;28;20141;-76
2022/10/25 12:43:25;;;;;;;15.07;2.72;;;;;;;;;;5084168;28;20052;-77
2022/10/25 12:46:03;;;;;;;14.93;2.78;;;;;;;;;;5086013;28;20025;-78
2022/10/25 12:48:48;;;;;;;11.90;2.50;;;;;;;;;;5080450;28;20080;-77
2022/10/25 12:51:36;;;;;;;16.05;3.10;;;;;;;;;;5076753;28;20081;-77
2022/10/25 12:54:21;;;;;;;11.25;2.53;;;;;;;;;;5076383;28;20025;-78
2022/10/25 12:56:47;;;;;;;;;;;;;;;;;;5077679;28;20093;-77
2022/10/25 12:59:18;;;;;;;11.68;2.72;;;;;;;;;;5076657;28;20222;-76
2022/10/25 13:01:48;;;;;;;13.27;3.05;;;;;;;;;;5078439;28;20029;-77
2022/10/25 13:04:32;;;;;;;12.95;3.20;;;;;;;;;;5078977;28;20042;-79
2022/10/25 13:07:02;;;;;;;11.18;2.78;;;;;;;;;;5079664;28;20151;-77
2022/10/25 13:09:32;;;;;;;13.45;2.85;;;;;;;;;;5077424;28;20029;-77
2022/10/25 13:12:00;;;;;;;12.43;2.90;;;;;;;;;;5096615;22;20078;-74
2022/10/25 13:14:25;;;;;;;21.65;3.65;;;;;;;;;;5053466;28;20037;-74
2022/10/25 13:16:51;;;;;;;12.90;2.60;;;;;;;;;;5053325;28;20082;-74
2022/10/25 13:19:23;;;;;;;12.52;2.78;;;;;;;;;;5053491;28;20477;-72
2022/10/25 13:21:52;;;;;;;13.20;3.10;;;;;;;;;;5055491;28;20067;-73
2022/10/25 13:24:51;;;;;;;15.55;3.03;;;;;;;;;;5053031;28;20025;-74
2022/10/25 13:27:33;;;;;;;18.58;3.22;;;;;;;;;;5009213;28;20392;-73
2022/10/25 13:30:02;;;;;;;19.50;2.80;;;;;;;;;;5053573;28;20028;-76
2022/10/25 13:32:29;;;;;;;13.07;2.83;;;;;;;;;;5053691;28;20411;-73
2022/10/25 13:34:58;;;;;;;13.35;2.80;;;;;;;;;;5053506;28;20087;-74
2022/10/25 13:37:30;;;;;;;14.35;3.00;;;;;;;;;;5053056;28;20382;-73
2022/10/25 13:39:58;;;;;;;17.80;3.50;;;;;;;;;;5053093;28;20032;-74
2022/10/25 13:42:34;;;;;;;14.18;3.10;;;;;;;;;;5052630;28;20056;-74
2022/10/25 13:45:03;;;;;;;14.48;3.15;;;;;;;;;;5052917;28;20025;-74
2022/10/25 13:47:48;;;;;;;15.52;3.00;;;;;;;;;;5053054;28;20059;-74
2022/10/25 13:50:32;;;;;;;22.38;3.95;;;;;;;;;;5056730;28;20036;-74
2022/10/25 13:53:00;;;;;;;18.83;3.25;;;;;;;;;;5054679;28;20033;-73
2022/10/25 13:55:28;;;;;;;12.85;2.92;;;;;;;;;;5052485;28;20485;-73
2022/10/25 13:57:55;;;;;;;21.73;3.35;;;;;;;;;;5053759;28;20044;-73
2022/10/25 14:00:21;;;;;;;20.58;3.03;;;;;;;;;;5054353;28;20052;-73
2022/10/25 14:03:06;;;;;;;14.73;3.15;;;;;;;;;;5053471;28;20071;-73
2022/10/25 14:05:50;;;;;;;10.90;2.72;;;;;;;;;;5054595;28;20088;-74
2022/10/25 14:08:20;;;;;;;14.60;3.33;;;;;;;;;;5055515;28;20114;-72
2022/10/25 14:10:47;;;;;;;19.80;3.20;;;;;;;;;;5060179;28;20432;-72
2022/10/25 14:13:16;;;;;;;11.23;2.88;;;;;;;;;;5063115;28;20103;-74
2022/10/25 14:15:49;;;;;;;11.88;2.25;;;;;;;;;;5064552;28;20043;-74
2022/10/25 14:18:17;;;;;;;12.68;2.80;;;;;;;;;;5065323;28;20059;-73
2022/10/25 14:20:48;;;;;;;13.20;3.70;;;;;;;;;;5045605;28;20170;-74
2022/10/25 14:23:15;;;;;;;10.05;2.85;;;;;;;;;;5058827;28;20021;-72
2022/10/25 14:25:42;;;;;;;14.18;3.00;;;;;;;;;;5040799;28;20025;-74
2022/10/25 14:28:13;;;;;;;13.10;2.85;;;;;;;;;;5058442;28;20021;-73
2022/10/25 14:30:41;;;;;;;15.20;3.28;;;;;;;;;;5053697;28;20096;-73
2022/10/25 14:33:19;;;;;;;17.05;3.05;;;;;;;;;;5054394;28;20140;-74
2022/10/25 14:35:46;;;;;;;14.85;3.22;;;;;;;;;;5036464;28;20464;-74